Time;durP1;ratioP1;P1;durP2;ratioP2;P2;SDS_P1;SDS_P2;PMS_P1;PMS_P2;Temp;Humidity;BMP_temperature;BMP_pressure;BME280_temperature;BME280_humidity;BME280_pressure;Samples;Min_cycle;Max_cycle;Signal;HPM_P1;HPM_P2
2023/11/05 00:02:22;;;;;;;1.53;1.40;;;;;;;15.79;47.52;95404.00;6961287;28;20221;-84
2023/11/05 00:05:44;;;;;;;1.20;1.20;;;;;;;15.80;47.21;95383.84;6957699;28;20284;-84
2023/11/05 00:09:05;;;;;;;1.50;1.40;;;;;;;15.96;47.28;95403.97;6973947;28;20967;-85
2023/11/05 00:12:27;;;;;;;1.40;1.40;;;;;;;15.86;47.41;95414.38;6973567;28;20254;-85
2023/11/05 00:15:54;;;;;;;1.40;1.30;;;;;;;15.51;48.11;95396.47;6972678;28;20218;-84
2023/11/05 00:19:15;;;;;;;1.23;1.13;;;;;;;15.39;48.14;95388.16;6966812;28;20716;-85
2023/11/05 00:22:37;;;;;;;1.30;1.30;;;;;;;15.57;47.81;95387.06;6945020;28;20266;-85
2023/11/05 00:25:59;;;;;;;1.93;1.67;;;;;;;15.12;48.57;95356.66;6951376;28;20236;-84
2023/11/05 00:29:20;;;;;;;1.20;1.20;;;;;;;15.17;48.25;95347.56;6967519;28;20252;-84
2023/11/05 00:32:43;;;;;;;1.60;1.50;;;;;;;15.45;47.99;95387.69;6950053;28;20297;-84
2023/11/05 00:36:05;;;;;;;1.60;1.50;;;;;;;15.19;48.47;95367.84;6946458;28;20648;-84
2023/11/05 00:39:27;;;;;;;1.77;1.50;;;;;;;15.06;48.88;95367.97;6968943;28;20374;-84
2023/11/05 00:42:48;;;;;;;2.93;1.53;;;;;;;14.92;49.35;95354.53;6949032;28;20233;-84
2023/11/05 00:46:12;;;;;;;1.90;1.73;;;;;;;15.06;49.05;95351.69;6954558;28;20206;-83
2023/11/05 00:49:35;;;;;;;2.47;2.17;;;;;;;14.70;49.63;95329.44;6968435;28;20231;-85
2023/11/05 00:52:56;;;;;;;1.80;1.70;;;;;;;14.66;50.11;95331.16;6920267;28;20260;-84
2023/11/05 00:56:18;;;;;;;1.70;1.33;;;;;;;14.67;50.03;95340.88;6959268;28;20824;-83
2023/11/05 00:59:39;;;;;;;1.70;1.60;;;;;;;14.94;49.64;95322.47;6947095;28;20315;-83
2023/11/05 01:03:01;;;;;;;1.30;1.30;;;;;;;14.51;50.43;95315.34;6958911;28;20223;-85
2023/11/05 01:06:24;;;;;;;1.57;1.47;;;;;;;14.55;50.25;95308.16;6949400;28;20302;-84
2023/11/05 01:09:45;;;;;;;1.30;1.30;;;;;;;14.57;49.99;95314.09;6969738;28;20306;-84
2023/11/05 01:13:07;;;;;;;1.97;1.30;;;;;;;14.57;50.13;95295.88;6960591;28;20408;-84
2023/11/05 01:16:28;;;;;;;1.30;1.20;;;;;;;15.02;49.30;95301.88;6958788;28;20236;-84
2023/11/05 01:19:50;;;;;;;4.53;3.60;;;;;;;14.87;49.15;95307.78;6972418;28;20321;-84
2023/11/05 01:23:13;;;;;;;2.30;1.33;;;;;;;14.87;49.23;95300.41;6963016;28;20229;-85
2023/11/05 01:26:34;;;;;;;1.23;1.20;;;;;;;14.94;48.86;95295.34;6959633;28;20311;-83
2023/11/05 01:29:56;;;;;;;1.37;1.37;;;;;;;14.72;48.37;95218.75;6963203;28;20293;-84
2023/11/05 01:33:17;;;;;;;1.40;1.30;;;;;;;14.99;48.84;95276.19;6977124;28;20334;-84
2023/11/05 01:36:39;;;;;;;1.10;1.10;;;;;;;15.10;48.25;95269.34;6968907;28;20348;-83
2023/11/05 01:40:02;;;;;;;1.27;1.27;;;;;;;14.93;48.76;95265.84;6962204;28;20704;-84
2023/11/05 01:43:24;;;;;;;1.20;1.20;;;;;;;14.56;49.47;95242.81;6959168;28;20239;-84
2023/11/05 01:46:45;;;;;;;1.40;1.30;;;;;;;15.01;48.67;95243.31;6944191;28;20306;-84
2023/11/05 01:50:07;;;;;;;2.60;1.27;;;;;;;14.71;49.05;95238.84;6966008;28;20343;-83
2023/11/05 01:53:29;;;;;;;1.53;1.30;;;;;;;14.28;49.55;95224.41;6951768;28;20254;-84
2023/11/05 01:56:52;;;;;;;1.50;1.40;;;;;;;14.65;49.40;95259.91;6951199;28;20205;-84
2023/11/05 02:00:14;;;;;;;1.20;1.10;;;;;;;14.94;48.42;95246.53;6964876;28;20745;-84
2023/11/05 02:03:38;;;;;;;1.63;1.20;;;;;;;14.96;47.52;95183.81;6975930;28;20246;-84
2023/11/05 02:07:00;;;;;;;1.17;1.17;;;;;;;15.39;47.42;95244.31;6972487;28;20215;-84
2023/11/05 02:10:22;;;;;;;1.37;1.20;;;;;;;15.18;47.68;95218.91;6977234;28;20312;-83
2023/11/05 02:13:45;;;;;;;1.57;1.33;;;;;;;15.07;47.82;95201.38;6975786;28;20199;-83
2023/11/05 02:17:07;;;;;;;1.47;1.37;;;;;;;15.32;47.08;95208.66;6956638;28;20234;-84
2023/11/05 02:20:29;;;;;;;1.13;1.10;;;;;;;15.53;46.79;95204.19;6969347;28;20317;-84
2023/11/05 02:23:51;;;;;;;1.57;1.20;;;;;;;15.45;46.80;95186.03;6976168;28;20686;-83
2023/11/05 02:27:14;;;;;;;1.10;1.10;;;;;;;15.47;46.59;95176.44;6964660;28;20222;-84
2023/11/05 02:30:35;;;;;;;1.53;1.30;;;;;;;15.69;46.04;95186.28;6949951;28;20290;-84
2023/11/05 02:33:57;;;;;;;1.40;1.20;;;;;;;15.58;46.14;95169.53;6963489;28;20697;-84
2023/11/05 02:37:18;;;;;;;1.30;1.20;;;;;;;15.61;45.98;95168.88;6959542;28;20294;-84
2023/11/05 02:40:41;;;;;;;1.60;1.30;;;;;;;15.50;45.72;95134.25;6953479;28;20298;-84
2023/11/05 02:44:02;;;;;;;1.30;1.20;;;;;;;15.81;45.71;95146.44;6925049;28;20350;-83
2023/11/05 02:47:24;;;;;;;1.50;1.40;;;;;;;16.00;45.30;95151.47;6953081;28;20239;-84
2023/11/05 02:50:45;;;;;;;2.37;1.03;;;;;;;15.87;45.60;95155.22;6960079;28;20244;-84
2023/11/05 02:54:07;;;;;;;1.60;1.10;;;;;;;15.44;46.25;95144.50;6939214;28;20288;-83
2023/11/05 02:57:30;;;;;;;3.43;1.40;;;;;;;15.15;46.90;95133.53;6949807;28;20335;-84
2023/11/05 03:00:51;;;;;;;2.10;1.40;;;;;;;15.15;47.03;95135.47;6949071;28;20294;-83
2023/11/05 03:04:14;;;;;;;2.57;1.47;;;;;;;14.71;46.77;95124.97;6947915;28;20691;-84
2023/11/05 03:07:36;;;;;;;3.47;1.60;;;;;;;15.10;45.98;95117.41;6947540;28;20235;-83
2023/11/05 03:10:57;;;;;;;5.77;1.30;;;;;;;15.42;45.64;95113.38;6972928;28;20202;-84
2023/11/05 03:14:20;;;;;;;1.47;1.30;;;;;;;15.34;45.12;95106.06;6948151;28;20266;-83
2023/11/05 03:17:41;;;;;;;1.80;1.30;;;;;;;15.05;46.59;95109.44;6946479;28;20714;-84
2023/11/05 03:21:03;;;;;;;3.20;1.70;;;;;;;15.40;45.39;95104.78;6946873;28;20358;-84
2023/11/05 03:24:25;;;;;;;4.13;1.70;;;;;;;15.32;45.48;95094.69;6947136;28;20351;-83
2023/11/05 03:27:46;;;;;;;1.73;1.63;;;;;;;15.27;45.35;95092.19;6948435;28;20251;-84
2023/11/05 03:31:09;;;;;;;2.50;1.30;;;;;;;15.57;44.85;95099.28;6947566;28;20294;-84
2023/11/05 03:34:31;;;;;;;3.10;1.40;;;;;;;15.44;44.79;95101.06;6946195;28;20303;-84
2023/11/05 03:37:52;;;;;;;2.33;1.50;;;;;;;15.18;45.36;95100.34;6948067;28;20314;-84
2023/11/05 03:41:14;;;;;;;2.83;1.77;;;;;;;14.80;44.92;95022.75;6946537;28;20314;-84
2023/11/05 03:44:35;;;;;;;3.03;1.60;;;;;;;15.45;44.29;95083.66;6947422;28;20211;-84
2023/11/05 03:47:58;;;;;;;1.67;1.37;;;;;;;15.46;43.40;95085.25;6924705;28;20217;-84
2023/11/05 03:51:20;;;;;;;3.63;1.80;;;;;;;15.84;43.11;95082.53;6938172;28;20294;-83
2023/11/05 03:54:42;;;;;;;2.47;2.23;;;;;;;15.80;43.19;95090.53;6963511;28;20240;-84
2023/11/05 03:58:04;;;;;;;3.67;1.63;;;;;;;15.53;43.21;95099.16;6946841;28;20636;-84
2023/11/05 04:01:25;;;;;;;4.40;1.80;;;;;;;15.27;42.88;95029.78;6946974;28;20292;-83
2023/11/05 04:04:51;;;;;;;2.37;1.97;;;;;;;15.79;43.10;95099.00;6945669;28;20654;-84
2023/11/05 04:08:12;;;;;;;8.07;1.80;;;;;;;16.16;42.02;95079.94;6947190;28;20229;-84
2023/11/05 04:11:34;;;;;;;2.43;1.60;;;;;;;15.81;41.93;95039.75;6937577;28;20295;-84
2023/11/05 04:14:56;;;;;;;3.97;1.80;;;;;;;15.83;42.68;95070.88;6945878;28;20236;-84
2023/11/05 04:18:17;;;;;;;4.63;1.97;;;;;;;16.12;41.93;95065.44;6947067;28;20319;-84
2023/11/05 04:21:40;;;;;;;3.10;1.50;;;;;;;16.20;41.53;95078.16;6947184;28;20295;-84
2023/11/05 04:25:02;;;;;;;3.90;1.70;;;;;;;15.83;41.79;95023.91;6950988;28;20351;-83
2023/11/05 04:28:23;;;;;;;3.00;1.73;;;;;;;16.03;42.00;95077.44;6946309;28;20231;-84
2023/11/05 04:31:45;;;;;;;5.27;2.07;;;;;;;16.29;41.42;95073.44;6945678;28;20340;-84
2023/11/05 04:35:07;;;;;;;2.83;2.00;;;;;;;16.06;42.11;95066.75;6946016;28;20242;-84
2023/11/05 04:38:29;;;;;;;4.77;2.80;;;;;;;15.90;41.54;95024.97;6946682;28;20268;-84
2023/11/05 04:41:51;;;;;;;4.23;1.93;;;;;;;16.09;41.77;95070.69;6944660;28;20322;-84
2023/11/05 04:45:14;;;;;;;4.10;1.80;;;;;;;16.54;41.18;95071.69;6945953;28;20749;-85
2023/11/05 04:48:35;;;;;;;13.73;8.43;;;;;;;16.74;40.61;95077.09;6947479;28;20239;-85
2023/11/05 04:51:57;;;;;;;3.10;2.13;;;;;;;16.74;40.54;95073.59;6946938;28;20772;-85
2023/11/05 04:55:20;;;;;;;2.97;2.03;;;;;;;16.53;41.13;95076.34;6944956;28;20240;-85
2023/11/05 04:58:41;;;;;;;4.20;2.60;;;;;;;16.87;40.90;95086.13;6947061;28;20239;-85
2023/11/05 05:02:03;;;;;;;4.87;2.03;;;;;;;17.08;40.47;95065.88;6945938;28;20847;-84
2023/11/05 05:05:24;;;;;;;4.07;2.47;;;;;;;17.19;40.18;95075.22;6946854;28;20269;-84
2023/11/05 05:08:48;;;;;;;3.13;2.10;;;;;;;17.17;40.35;95069.31;6946987;28;20372;-84
2023/11/05 05:12:10;;;;;;;3.03;1.77;;;;;;;16.74;41.34;95057.28;6944699;28;20243;-83
2023/11/05 05:15:32;;;;;;;3.07;2.40;;;;;;;17.09;40.57;95080.28;6945266;28;20291;-83
2023/11/05 05:18:53;;;;;;;2.53;1.40;;;;;;;16.73;41.26;95080.16;6944612;28;20291;-84
2023/11/05 05:22:15;;;;;;;5.83;1.60;;;;;;;16.63;41.69;95088.75;6945677;28;20686;-84
2023/11/05 05:25:36;;;;;;;2.33;1.50;;;;;;;16.66;41.88;95097.03;6947106;28;20239;-84
2023/11/05 05:28:59;;;;;;;3.73;1.50;;;;;;;16.60;41.82;95105.69;6947462;28;20302;-84
2023/11/05 05:32:21;;;;;;;1.30;1.20;;;;;;;16.68;42.13;95105.63;6947041;28;20697;-84
2023/11/05 05:35:42;;;;;;;1.90;1.40;;;;;;;16.64;42.35;95101.19;6944972;28;20282;-84
2023/11/05 05:39:04;;;;;;;2.30;1.43;;;;;;;16.32;42.98;95096.44;6946409;28;20232;-84
2023/11/05 05:42:25;;;;;;;2.30;1.43;;;;;;;16.62;42.84;95106.16;6946337;28;20694;-84
2023/11/05 05:45:48;;;;;;;3.80;1.43;;;;;;;16.77;42.31;95100.94;6937823;28;20304;-85
2023/11/05 05:49:10;;;;;;;1.97;1.30;;;;;;;16.86;42.21;95100.84;6944697;28;20225;-84
2023/11/05 05:52:31;;;;;;;2.20;1.40;;;;;;;16.95;41.75;95104.28;6945919;28;20297;-83
2023/11/05 05:55:53;;;;;;;1.67;1.17;;;;;;;16.84;42.37;95108.53;6970263;28;20291;-84
2023/11/05 05:59:14;;;;;;;2.37;1.50;;;;;;;16.95;42.02;95105.09;6955384;28;20363;-84
2023/11/05 06:02:37;;;;;;;1.47;1.37;;;;;;;16.64;42.89;95121.00;6940818;28;20255;-84
2023/11/05 06:05:58;;;;;;;3.33;1.50;;;;;;;16.62;43.23;95128.72;6937378;28;20248;-83
2023/11/05 06:09:22;;;;;;;3.67;1.27;;;;;;;16.63;43.22;95119.44;6952383;28;20699;-84
2023/11/05 06:12:44;;;;;;;2.90;1.60;;;;;;;16.12;42.90;95002.13;6927507;28;20214;-83
2023/11/05 06:16:06;;;;;;;1.50;1.20;;;;;;;16.37;43.76;95107.94;6959316;28;20207;-83
2023/11/05 06:19:29;;;;;;;0.97;0.97;;;;;;;16.22;43.94;95113.16;6949872;28;20288;-84
2023/11/05 06:22:53;;;;;;;1.40;1.30;;;;;;;16.25;44.46;95120.63;6954892;28;20337;-84
2023/11/05 06:26:15;;;;;;;2.37;1.40;;;;;;;15.89;45.41;95136.66;6959102;28;20258;-84
2023/11/05 06:29:36;;;;;;;1.70;1.17;;;;;;;16.27;44.78;95135.50;6958907;28;20336;-84
2023/11/05 06:32:58;;;;;;;2.47;1.93;;;;;;;16.12;45.00;95138.78;6969593;28;20243;-84
2023/11/05 06:36:21;;;;;;;1.20;1.20;;;;;;;16.25;44.93;95129.59;6972654;28;20213;-83
2023/11/05 06:39:42;;;;;;;1.40;1.30;;;;;;;16.20;45.19;95123.53;6944026;28;20232;-85
2023/11/05 06:43:04;;;;;;;1.97;1.30;;;;;;;16.28;44.97;95130.88;6945177;28;20225;-85
2023/11/05 06:46:26;;;;;;;1.37;1.27;;;;;;;16.51;44.67;95132.19;6947472;28;20273;-86
2023/11/05 06:49:48;;;;;;;1.80;1.27;;;;;;;16.22;44.99;95113.16;6953218;28;20715;-85
2023/11/05 06:53:11;;;;;;;1.60;1.43;;;;;;;16.60;44.11;95151.94;6945574;28;20295;-85
2023/11/05 06:56:33;;;;;;;1.30;1.20;;;;;;;16.36;44.83;95151.75;6946043;28;20266;-84
2023/11/05 06:59:54;;;;;;;1.67;1.40;;;;;;;16.10;45.06;95141.03;6947603;28;20306;-85
2023/11/05 07:03:16;;;;;;;1.97;1.30;;;;;;;16.12;45.44;95167.88;6945328;28;20231;-86
2023/11/05 07:06:37;;;;;;;1.30;1.20;;;;;;;16.08;44.86;95091.66;6947780;28;20653;-84
2023/11/05 07:10:04;;;;;;;1.07;1.07;;;;;;;16.44;44.78;95159.88;6949491;28;20314;-83
2023/11/05 07:13:25;;;;;;;1.40;1.30;;;;;;;16.70;44.43;95184.97;6946746;28;20704;-85
2023/11/05 07:16:47;;;;;;;1.50;1.40;;;;;;;16.14;45.71;95190.88;6946369;28;20248;-84
2023/11/05 07:20:12;;;;;;;1.40;1.30;;;;;;;15.77;47.22;95182.72;6947858;28;20713;-84
2023/11/05 07:23:33;;;;;;;1.50;1.40;;;;;;;16.49;44.97;95176.00;6944358;28;20218;-84
2023/11/05 07:26:57;;;;;;;1.50;1.40;;;;;;;16.44;45.46;95197.13;6945270;28;20347;-84
2023/11/05 07:30:19;;;;;;;1.50;1.10;;;;;;;16.17;46.10;95197.59;6956230;28;20278;-83
2023/11/05 07:33:40;;;;;;;2.47;1.50;;;;;;;16.57;45.65;95190.69;6920876;28;20772;-82
2023/11/05 07:37:02;;;;;;;1.30;1.20;;;;;;;16.39;46.07;95203.56;6936764;28;20243;-83
2023/11/05 07:40:23;;;;;;;1.17;1.17;;;;;;;17.15;44.41;95185.09;6928578;28;20304;-81
2023/11/05 07:43:46;;;;;;;2.10;1.20;;;;;;;17.15;44.61;95209.59;6940926;28;20256;-84
2023/11/05 07:47:08;;;;;;;0.93;0.93;;;;;;;17.20;45.17;95204.75;6942193;28;20268;-85
2023/11/05 07:50:30;;;;;;;0.90;0.90;;;;;;;17.08;44.42;95198.44;6919110;28;20273;-84
2023/11/05 07:53:52;;;;;;;1.07;1.03;;;;;;;17.06;45.10;95212.41;6946366;28;20259;-84
2023/11/05 07:57:14;;;;;;;0.93;0.93;;;;;;;17.27;44.80;95212.38;6939387;28;20254;-84
2023/11/05 08:00:38;;;;;;;1.37;0.97;;;;;;;17.40;44.51;95211.31;6946589;28;20208;-84
2023/11/05 08:04:00;;;;;;;2.53;1.00;;;;;;;16.40;46.43;95242.44;6944889;28;20235;-84
2023/11/05 08:07:22;;;;;;;0.87;0.87;;;;;;;16.84;44.94;95176.53;6930853;28;20237;-84
2023/11/05 08:10:44;;;;;;;1.93;1.03;;;;;;;17.03;44.64;95229.38;6917569;28;20208;-84
2023/11/05 08:14:05;;;;;;;0.90;0.90;;;;;;;19.65;39.95;95253.75;6940132;28;20209;-84
2023/11/05 08:17:28;;;;;;;1.07;0.90;;;;;;;19.84;38.13;95253.06;6971665;28;20214;-84
2023/11/05 08:20:50;;;;;;;0.90;0.80;;;;;;;19.42;39.78;95273.75;6972744;28;20288;-84
2023/11/05 08:24:11;;;;;;;0.83;0.80;;;;;;;18.76;40.87;95278.69;6945941;28;20318;-85
2023/11/05 08:27:33;;;;;;;1.10;1.00;;;;;;;18.54;42.22;95301.00;6944886;28;20321;-84
2023/11/05 08:30:54;;;;;;;1.47;1.20;;;;;;;18.55;41.72;95288.94;6943486;28;20206;-84
2023/11/05 08:34:17;;;;;;;1.53;1.43;;;;;;;17.45;43.51;95314.59;6941595;28;20202;-84
2023/11/05 08:37:40;;;;;;;1.40;1.30;;;;;;;17.30;44.50;95340.47;6942127;28;20318;-84
2023/11/05 08:41:02;;;;;;;1.47;1.37;;;;;;;17.54;44.22;95337.09;6944362;28;20206;-84
2023/11/05 08:44:24;;;;;;;1.27;1.27;;;;;;;16.93;44.84;95294.28;6957967;28;20732;-85
2023/11/05 08:47:45;;;;;;;1.07;0.93;;;;;;;17.05;45.12;95360.44;6945260;28;20358;-85
2023/11/05 08:51:08;;;;;;;0.90;0.90;;;;;;;17.79;44.08;95361.41;6947850;28;20222;-83
2023/11/05 08:54:30;;;;;;;1.33;1.23;;;;;;;18.11;43.42;95363.34;6949566;28;20680;-86
2023/11/05 08:57:52;;;;;;;1.60;1.40;;;;;;;18.38;42.65;95364.69;6947848;28;20223;-83
2023/11/05 09:01:16;;;;;;;1.20;1.10;;;;;;;18.76;42.32;95359.78;6950551;28;20689;-81
2023/11/05 09:04:38;;;;;;;17.80;11.97;;;;;;;18.68;42.42;95363.41;6948570;28;20229;-84
2023/11/05 09:08:01;;;;;;;4.77;4.30;;;;;;;18.53;42.40;95374.97;6969382;28;20233;-83
2023/11/05 09:11:23;;;;;;;1.50;0.87;;;;;;;17.87;42.78;95374.16;6968407;28;20583;-83
2023/11/05 09:14:44;;;;;;;1.60;1.10;;;;;;;17.71;42.95;95400.44;6946092;28;20202;-84
2023/11/05 09:18:06;;;;;;;0.90;0.90;;;;;;;17.68;43.44;95401.06;6946670;28;20311;-80
2023/11/05 09:21:28;;;;;;;1.63;1.10;;;;;;;18.05;42.69;95426.59;6945836;28;20337;-82
2023/11/05 09:24:50;;;;;;;2.20;1.07;;;;;;;17.76;43.40;95426.66;6950008;28;20307;-83
2023/11/05 09:28:13;;;;;;;1.67;1.57;;;;;;;17.43;44.12;95429.28;6968170;28;20710;-83
2023/11/05 09:31:34;;;;;;;1.10;1.10;;;;;;;17.35;44.77;95445.66;6949471;28;20209;-81
2023/11/05 09:34:57;;;;;;;0.97;0.97;;;;;;;17.89;43.55;95444.69;6949241;28;20289;-83
2023/11/05 09:38:19;;;;;;;1.07;0.90;;;;;;;17.91;42.34;95366.09;6943288;28;20219;-84
2023/11/05 09:41:42;;;;;;;0.87;0.87;;;;;;;18.03;42.47;95467.00;6959702;28;20584;-84
2023/11/05 09:45:07;;;;;;;0.93;0.93;;;;;;;17.78;43.93;95493.31;6947055;28;20230;-83
2023/11/05 09:48:28;;;;;;;1.13;1.03;;;;;;;17.49;43.61;95509.69;6946455;28;20258;-84
2023/11/05 09:51:50;;;;;;;1.27;0.80;;;;;;;17.55;43.70;95466.69;6946469;28;20230;-84
2023/11/05 09:55:12;;;;;;;3.17;1.20;;;;;;;18.06;43.27;95504.50;6946499;28;20203;-84
2023/11/05 09:58:35;;;;;;;0.80;0.80;;;;;;;17.51;43.17;95521.03;6945093;28;20383;-84
2023/11/05 10:01:56;;;;;;;1.17;1.00;;;;;;;17.70;43.17;95540.47;6947303;28;20691;-83
2023/11/05 10:05:18;;;;;;;1.77;1.57;;;;;;;16.75;45.19;95521.28;6946482;28;20257;-84
2023/11/05 10:08:39;;;;;;;0.83;0.83;;;;;;;17.59;44.65;95535.75;6946279;28;20305;-83
2023/11/05 10:12:03;;;;;;;1.20;1.10;;;;;;;18.14;42.95;95560.91;6944769;28;20298;-84
2023/11/05 10:15:26;;;;;;;2.23;1.13;;;;;;;17.56;44.28;95585.41;6945817;28;20199;-85
2023/11/05 10:18:52;;;;;;;1.60;1.00;;;;;;;17.49;44.56;95574.22;6946201;28;20266;-84
2023/11/05 10:22:15;;;;;;;1.07;1.00;;;;;;;17.56;45.38;95604.47;6946362;28;20329;-85
2023/11/05 10:25:37;;;;;;;1.10;1.10;;;;;;;16.92;46.29;95587.34;6943698;28;20222;-84
2023/11/05 10:28:58;;;;;;;1.57;1.47;;;;;;;16.88;46.75;95574.69;6945696;28;20365;-84
2023/11/05 10:32:21;;;;;;;1.03;0.90;;;;;;;17.30;47.47;95595.56;6945655;28;20203;-84
2023/11/05 10:35:44;;;;;;;0.90;0.90;;;;;;;16.99;48.56;95612.13;6945912;28;20199;-84
2023/11/05 10:39:06;;;;;;;1.67;1.03;;;;;;;16.62;48.97;95603.84;6944521;28;20273;-84
2023/11/05 10:42:28;;;;;;;1.00;1.00;;;;;;;16.99;48.49;95608.63;6943060;28;20209;-84
2023/11/05 10:45:50;;;;;;;3.33;1.20;;;;;;;16.69;49.29;95610.41;6944608;28;20250;-84
2023/11/05 10:49:13;;;;;;;5.63;1.20;;;;;;;16.59;51.55;95621.63;6945920;28;20364;-84
2023/11/05 10:52:35;;;;;;;2.10;1.17;;;;;;;16.52;51.82;95628.66;6945614;28;20211;-85
2023/11/05 10:55:57;;;;;;;2.10;1.37;;;;;;;16.53;52.27;95646.56;6943419;28;20236;-85
2023/11/05 10:59:34;;;;;;;1.00;1.00;;;;;;;16.54;53.09;95640.81;6952398;28;20228;-84
2023/11/05 11:02:55;;;;;;;2.10;1.30;;;;;;;16.53;53.34;95643.84;6945101;28;20678;-84
2023/11/05 11:06:18;;;;;;;1.00;1.00;;;;;;;16.41;53.20;95654.53;6944969;28;20205;-84
2023/11/05 11:09:42;;;;;;;1.20;1.20;;;;;;;16.09;53.54;95638.59;6943715;28;20315;-84
2023/11/05 11:13:10;;;;;;;1.13;1.03;;;;;;;15.81;55.33;95675.28;6945344;28;20219;-84
2023/11/05 11:16:35;;;;;;;1.10;1.10;;;;;;;15.64;55.80;95658.91;6945781;28;20566;-83
2023/11/05 11:19:56;;;;;;;3.87;2.13;;;;;;;15.73;56.70;95662.47;6924945;28;20638;-84
2023/11/05 11:23:21;;;;;;;1.17;1.03;;;;;;;15.73;56.45;95678.75;6936607;28;20268;-83
2023/11/05 11:26:42;;;;;;;3.93;2.67;;;;;;;16.61;54.07;95686.53;6947827;28;20208;-81
2023/11/05 11:30:05;;;;;;;12.93;7.97;;;;;;;15.98;55.35;95694.38;6947285;28;20320;-82
2023/11/05 11:33:27;;;;;;;1.40;1.30;;;;;;;16.56;53.70;95695.66;6945117;28;20205;-86
2023/11/05 11:36:59;;;;;;;1.30;1.20;;;;;;;16.32;53.31;95642.81;6944013;28;20891;-87
2023/11/05 11:40:22;;;;;;;1.97;1.20;;;;;;;16.74;53.73;95694.56;6942807;28;20678;-86
2023/11/05 11:43:44;;;;;;;1.40;1.30;;;;;;;15.96;55.74;95715.59;6919540;28;20290;-86
2023/11/05 11:47:05;;;;;;;1.30;1.20;;;;;;;15.98;57.50;95721.53;6928471;28;20260;-82
2023/11/05 11:50:27;;;;;;;2.20;1.60;;;;;;;16.25;56.79;95733.00;6946519;28;20295;-83
2023/11/05 11:53:48;;;;;;;1.83;1.10;;;;;;;16.68;54.35;95709.44;6958350;28;20296;-84
2023/11/05 11:57:12;;;;;;;1.23;1.20;;;;;;;16.48;55.37;95734.53;6936599;28;20265;-85
2023/11/05 12:00:33;;;;;;;1.20;1.20;;;;;;;16.49;55.28;95741.56;6943005;28;20263;-83
2023/11/05 12:03:56;;;;;;;1.10;1.10;;;;;;;16.76;55.60;95765.00;6944007;28;20703;-84
2023/11/05 12:07:18;;;;;;;1.43;1.30;;;;;;;16.30;55.99;95772.81;6954817;28;20735;-85
2023/11/05 12:10:42;;;;;;;1.30;1.20;;;;;;;16.37;55.08;95768.53;6942772;28;20437;-84
2023/11/05 12:14:06;;;;;;;1.00;1.00;;;;;;;16.08;55.99;95784.56;6942937;28;20295;-84
2023/11/05 12:17:28;;;;;;;1.00;1.00;;;;;;;15.99;56.37;95802.72;6939367;28;20201;-85
2023/11/05 12:20:49;;;;;;;3.00;1.30;;;;;;;16.29;56.36;95790.25;6959846;28;20215;-84
2023/11/05 12:24:11;;;;;;;1.27;1.17;;;;;;;16.03;56.39;95801.00;6943169;28;20262;-84
2023/11/05 12:27:33;;;;;;;1.27;1.10;;;;;;;16.66;55.49;95808.78;6953346;28;20306;-84
2023/11/05 12:30:57;;;;;;;0.90;0.90;;;;;;;16.65;54.17;95797.13;6956515;28;20245;-85
2023/11/05 12:34:19;;;;;;;4.40;2.73;;;;;;;16.93;55.24;95803.91;6942688;28;20209;-85
2023/11/05 12:37:41;;;;;;;1.30;1.30;;;;;;;17.10;54.05;95822.97;6943014;28;20289;-85
2023/11/05 12:41:02;;;;;;;3.73;1.80;;;;;;;17.07;53.41;95815.47;6941490;28;20328;-84
2023/11/05 12:44:24;;;;;;;1.50;1.50;;;;;;;16.87;53.51;95835.09;6958842;28;20259;-84
2023/11/05 12:47:47;;;;;;;1.00;1.00;;;;;;;16.44;53.79;95827.91;6943094;28;20240;-85
2023/11/05 12:51:08;;;;;;;1.30;1.20;;;;;;;17.14;53.02;95839.47;6943083;28;20303;-85
2023/11/05 12:54:30;;;;;;;1.30;1.20;;;;;;;16.96;53.88;95854.16;6937106;28;20217;-85
2023/11/05 12:57:52;;;;;;;1.00;1.00;;;;;;;16.91;53.65;95863.28;6943126;28;20224;-83
2023/11/05 13:01:13;;;;;;;1.00;1.00;;;;;;;16.26;53.85;95881.38;6956370;28;20209;-85
2023/11/05 13:04:37;;;;;;;1.13;1.13;;;;;;;16.52;53.86;95887.78;6945671;28;20271;-84
2023/11/05 13:07:58;;;;;;;0.83;0.83;;;;;;;16.44;53.38;95890.44;6945439;28;20616;-84
2023/11/05 13:11:21;;;;;;;0.80;0.80;;;;;;;17.03;52.72;95885.25;6944042;28;20219;-84
2023/11/05 13:14:42;;;;;;;1.30;1.17;;;;;;;17.07;53.10;95869.09;6941686;28;20209;-84
2023/11/05 13:18:04;;;;;;;1.70;1.40;;;;;;;17.16;52.74;95902.59;6932938;28;20354;-84
2023/11/05 13:21:27;;;;;;;2.07;1.50;;;;;;;16.95;52.36;95894.22;6971061;28;20213;-84
2023/11/05 13:24:48;;;;;;;1.03;1.03;;;;;;;17.32;52.00;95899.09;6953893;28;20267;-83
2023/11/05 13:28:10;;;;;;;1.27;1.17;;;;;;;17.37;52.17;95907.13;6945980;28;20233;-84
2023/11/05 13:31:31;;;;;;;1.20;1.20;;;;;;;16.69;53.47;95928.66;6952875;28;20260;-84
2023/11/05 13:34:53;;;;;;;1.50;1.40;;;;;;;16.57;53.69;95930.38;6947140;28;20667;-83
2023/11/05 13:38:16;;;;;;;1.20;1.10;;;;;;;16.99;52.10;95932.47;6948628;28;20314;-82
2023/11/05 13:41:37;;;;;;;1.30;1.23;;;;;;;16.34;54.41;95939.66;6940464;28;20352;-83
2023/11/05 13:44:59;;;;;;;1.30;1.20;;;;;;;16.54;54.22;95952.75;6946986;28;20286;-84
2023/11/05 13:48:20;;;;;;;2.13;1.37;;;;;;;16.71;53.98;95969.97;6954109;28;20241;-85
2023/11/05 13:51:42;;;;;;;1.30;1.30;;;;;;;16.32;55.16;95972.56;6945638;28;20292;-84
2023/11/05 13:55:07;;;;;;;1.67;1.57;;;;;;;16.38;55.55;95970.53;6947454;28;20237;-83
2023/11/05 13:58:29;;;;;;;1.27;1.20;;;;;;;16.95;53.76;96007.69;6948110;28;20225;-84
2023/11/05 14:01:50;;;;;;;1.30;1.20;;;;;;;16.38;56.05;96025.75;6950164;28;20209;-85
2023/11/05 14:05:14;;;;;;;1.83;1.40;;;;;;;17.01;54.86;96022.78;6939192;28;20378;-83
2023/11/05 14:08:35;;;;;;;1.50;1.40;;;;;;;16.68;56.36;96035.88;6944925;28;20236;-84
2023/11/05 14:12:02;;;;;;;2.00;1.60;;;;;;;16.32;55.70;96034.28;6947160;28;20514;-83
2023/11/05 14:15:23;;;;;;;6.47;4.33;;;;;;;16.45;56.18;96034.28;6948032;28;20196;-83
2023/11/05 14:18:45;;;;;;;1.20;1.20;;;;;;;16.23;56.41;96066.06;6945510;28;20247;-83
2023/11/05 14:22:07;;;;;;;1.63;1.40;;;;;;;15.81;58.25;96044.72;6947588;28;20205;-83
2023/11/05 14:25:28;;;;;;;1.43;1.40;;;;;;;16.08;57.72;96071.81;6937943;28;20370;-83
2023/11/05 14:28:51;;;;;;;1.80;1.70;;;;;;;16.09;57.45;96068.81;6946193;28;20668;-84
2023/11/05 14:32:14;;;;;;;1.27;1.20;;;;;;;16.30;55.94;96066.44;6947405;28;20624;-83
2023/11/05 14:35:35;;;;;;;1.40;1.30;;;;;;;16.68;55.03;96084.06;6946610;28;20348;-84
2023/11/05 14:38:57;;;;;;;1.40;1.30;;;;;;;16.11;55.96;96063.84;6965864;28;20264;-83
2023/11/05 14:42:20;;;;;;;1.37;1.27;;;;;;;15.90;57.21;96091.78;6973154;28;20248;-83
2023/11/05 14:45:46;;;;;;;0.90;0.90;;;;;;;15.72;57.13;96122.59;6946436;28;20224;-83
2023/11/05 14:49:09;;;;;;;1.30;1.20;;;;;;;16.13;56.90;96118.72;6943215;28;20259;-84
2023/11/05 14:52:31;;;;;;;2.63;2.20;;;;;;;16.26;56.41;96136.09;6949921;28;20211;-84
2023/11/05 14:55:53;;;;;;;1.30;1.30;;;;;;;16.39;55.30;96140.75;6935456;28;20296;-84
2023/11/05 14:59:14;;;;;;;1.00;1.00;;;;;;;16.18;55.54;96167.56;6954910;28;20228;-83
2023/11/05 15:02:37;;;;;;;1.00;1.00;;;;;;;16.22;55.48;96168.53;6946380;28;20292;-84
2023/11/05 15:06:00;;;;;;;1.60;1.50;;;;;;;15.67;55.75;96156.09;6946170;28;20319;-84
2023/11/05 15:09:22;;;;;;;1.50;1.40;;;;;;;15.73;56.92;96184.75;6946432;28;20722;-84
2023/11/05 15:12:44;;;;;;;1.90;1.80;;;;;;;16.00;55.84;96187.50;6944070;28;20208;-83
2023/11/05 15:16:06;;;;;;;1.20;1.20;;;;;;;15.50;56.25;96199.31;6945528;28;20203;-84
2023/11/05 15:19:29;;;;;;;1.27;1.27;;;;;;;15.28;56.12;96174.69;6944913;28;20239;-84
2023/11/05 15:22:50;;;;;;;1.27;1.27;;;;;;;15.38;57.19;96214.47;6946980;28;20260;-83
2023/11/05 15:26:13;;;;;;;1.40;1.30;;;;;;;15.09;57.17;96173.94;6945871;28;20231;-84
2023/11/05 15:29:34;;;;;;;1.40;1.30;;;;;;;15.73;56.97;96239.09;6941187;28;20239;-83
2023/11/05 15:32:57;;;;;;;1.47;1.40;;;;;;;15.82;56.33;96260.94;6944833;28;20293;-84
2023/11/05 15:36:21;;;;;;;1.33;1.23;;;;;;;15.52;57.14;96245.97;6922247;28;20215;-85
2023/11/05 15:39:43;;;;;;;1.50;1.40;;;;;;;15.55;57.46;96274.44;6966404;28;20251;-85
2023/11/05 15:43:05;;;;;;;2.40;2.20;;;;;;;15.66;56.59;96284.84;6918969;28;20215;-85
2023/11/05 15:46:26;;;;;;;1.80;1.70;;;;;;;15.69;56.66;96295.09;6942951;28;20228;-85
2023/11/05 15:49:48;;;;;;;1.67;1.53;;;;;;;15.49;58.22;96328.03;6961863;28;20259;-84
2023/11/05 15:53:11;;;;;;;1.33;1.33;;;;;;;15.09;59.84;96304.19;6955067;28;20206;-84